Time;durP1;ratioP1;P1;durP2;ratioP2;P2;SDS_P1;SDS_P2;PMS_P1;PMS_P2;Temp;Humidity;BMP_temperature;BMP_pressure;BME280_temperature;BME280_humidity;BME280_pressure;Samples;Min_cycle;Max_cycle;Signal;HPM_P1;HPM_P2
2023/01/28 00:01:58;;;;;;;90.65;54.92;;;;;;;0.41;100.00;100312.81;5115178;28;20034;-72
2023/01/28 00:04:23;;;;;;;85.97;50.53;;;;;;;0.68;100.00;100345.44;5114819;28;20541;-72
2023/01/28 00:06:49;;;;;;;92.72;49.95;;;;;;;0.54;100.00;100347.91;5114680;28;20023;-74
2023/01/28 00:09:14;;;;;;;90.85;50.78;;;;;;;0.28;100.00;100291.38;5114657;28;20031;-72
2023/01/28 00:11:39;;;;;;;92.80;54.10;;;;;;;0.56;100.00;100322.28;5114676;28;20540;-72
2023/01/28 00:14:05;;;;;;;102.07;57.38;;;;;;;0.30;100.00;100323.03;5114353;28;20028;-72
2023/01/28 00:16:30;;;;;;;95.95;53.83;;;;;;;0.47;100.00;100330.81;5114842;28;20094;-72
2023/01/28 00:18:55;;;;;;;83.95;48.85;;;;;;;0.38;100.00;100329.03;5114447;28;20035;-72
2023/01/28 00:21:21;;;;;;;93.30;52.55;;;;;;;0.26;100.00;100313.59;5114455;28;20024;-72
2023/01/28 00:23:54;;;;;;;92.43;52.58;;;;;;;0.39;100.00;100330.75;5114230;28;20052;-72
2023/01/28 00:26:21;;;;;;;94.03;52.05;;;;;;;0.36;100.00;100338.41;5114326;28;20024;-72
2023/01/28 00:28:47;;;;;;;97.03;53.97;;;;;;;0.23;100.00;100298.19;5114203;28;20023;-72
2023/01/28 00:31:19;;;;;;;102.50;58.65;;;;;;;0.52;100.00;100333.38;5114075;28;20164;-72
2023/01/28 00:33:46;;;;;;;91.72;49.17;;;;;;;0.35;100.00;100335.84;5114239;28;20031;-72
2023/01/28 00:36:13;;;;;;;91.65;54.38;;;;;;;0.30;100.00;100317.91;5114014;27;20091;-72
2023/01/28 00:38:38;;;;;;;97.65;55.95;;;;;;;0.19;100.00;100306.72;5114209;28;20031;-72
2023/01/28 00:41:13;;;;;;;85.63;53.55;;;;;;;0.51;100.00;100312.03;5113956;28;20471;-72
2023/01/28 00:43:39;;;;;;;77.78;43.85;;;;;;;0.43;100.00;100318.81;5114320;28;20031;-72
2023/01/28 00:46:06;;;;;;;77.90;46.38;;;;;;;0.37;100.00;100304.25;5113908;28;20051;-75
2023/01/28 00:48:32;;;;;;;95.25;53.17;;;;;;;0.36;100.00;100297.41;5114076;28;20031;-72
2023/01/28 00:50:58;;;;;;;82.63;49.08;;;;;;;0.33;100.00;100301.66;5113103;28;20027;-72
2023/01/28 00:53:23;;;;;;;75.90;46.10;;;;;;;0.36;100.00;100296.56;5113340;28;20059;-72
2023/01/28 00:55:48;;;;;;;76.75;45.22;;;;;;;0.14;100.00;100296.44;5113802;28;20490;-75
2023/01/28 00:58:14;;;;;;;75.22;43.83;;;;;;;0.32;100.00;100328.13;5113694;28;20093;-72
2023/01/28 01:00:39;;;;;;;76.85;44.90;;;;;;;0.04;100.00;100304.91;5113765;28;20019;-72
2023/01/28 01:03:04;;;;;;;73.57;44.33;;;;;;;0.06;100.00;100310.91;5113437;28;20047;-72
2023/01/28 01:05:32;;;;;;;71.18;42.30;;;;;;;-0.03;100.00;100286.09;5113882;28;20414;-72
2023/01/28 01:07:58;;;;;;;75.72;43.75;;;;;;;0.28;100.00;100319.56;5113476;28;20034;-72
2023/01/28 01:10:24;;;;;;;82.60;45.97;;;;;;;0.12;100.00;100328.84;5113832;28;20090;-72
2023/01/28 01:12:49;;;;;;;90.63;49.65;;;;;;;-0.04;100.00;100311.69;5113777;28;20023;-72
2023/01/28 01:15:16;;;;;;;73.63;44.03;;;;;;;-0.01;100.00;100301.47;5113390;28;20028;-72
2023/01/28 01:17:44;;;;;;;75.20;43.50;;;;;;;-0.02;100.00;100308.28;5113494;28;20019;-72
2023/01/28 01:20:22;;;;;;;77.53;45.60;;;;;;;0.08;100.00;100305.78;5112972;28;20020;-72
2023/01/28 01:22:47;;;;;;;80.20;44.88;;;;;;;0.14;100.00;100322.06;5113080;28;20100;-72
2023/01/28 01:25:14;;;;;;;75.55;44.67;;;;;;;-0.09;100.00;100311.63;5113194;28;20039;-72
2023/01/28 01:27:40;;;;;;;75.13;44.13;;;;;;;-0.14;100.00;100307.34;5113230;28;20035;-72
2023/01/28 01:30:07;;;;;;;78.57;46.53;;;;;;;0.07;100.00;100322.84;5113041;28;20024;-72
2023/01/28 01:32:36;;;;;;;75.40;43.28;;;;;;;-0.11;100.00;100338.94;5113198;28;20027;-72
2023/01/28 01:35:04;;;;;;;79.38;44.38;;;;;;;-0.13;100.00;100356.00;5112843;28;20027;-72
2023/01/28 01:37:30;;;;;;;74.82;45.53;;;;;;;-0.23;100.00;100361.91;5112956;28;20166;-72
2023/01/28 01:39:56;;;;;;;74.63;43.63;;;;;;;-0.27;100.00;100342.22;5113356;28;20115;-72
2023/01/28 01:42:23;;;;;;;73.93;43.60;;;;;;;-0.13;100.00;100353.44;5113062;28;20057;-72
2023/01/28 01:44:53;;;;;;;73.68;42.67;;;;;;;0.04;100.00;100365.50;5112993;28;20125;-72
2023/01/28 01:47:23;;;;;;;74.80;43.35;;;;;;;-0.22;100.00;100338.00;5112615;28;20072;-72
2023/01/28 01:49:48;;;;;;;77.95;44.25;;;;;;;-0.23;100.00;100343.13;5112712;28;20463;-72
2023/01/28 01:52:18;;;;;;;73.75;43.42;;;;;;;-0.20;100.00;100371.31;5112468;28;20028;-72
2023/01/28 01:54:48;;;;;;;83.47;47.83;;;;;;;-0.38;100.00;100369.44;5113264;28;20035;-71
2023/01/28 01:57:20;;;;;;;75.43;46.40;;;;;;;-0.36;100.00;100360.06;5112864;28;20172;-72
2023/01/28 01:59:45;;;;;;;78.75;47.25;;;;;;;-0.24;100.00;100372.97;5112513;28;20063;-72
2023/01/28 02:02:11;;;;;;;78.10;45.83;;;;;;;-0.35;100.00;100347.28;5112306;28;20023;-72
2023/01/28 02:04:43;;;;;;;70.38;41.67;;;;;;;-0.51;100.00;100356.53;5112323;28;20058;-72
2023/01/28 02:07:09;;;;;;;;;;;;;;;-0.46;100.00;100369.38;5111565;28;20379;-72
2023/01/28 02:09:37;;;;;;;74.82;44.58;;;;;;;-0.45;100.00;100342.09;5112504;28;20480;-75
2023/01/28 02:12:08;;;;;;;75.75;43.53;;;;;;;-0.33;100.00;100370.34;5112292;28;20047;-72
2023/01/28 02:14:37;;;;;;;80.30;43.80;;;;;;;-0.62;100.00;100334.25;5112415;28;20028;-72
2023/01/28 02:17:03;;;;;;;78.97;45.10;;;;;;;-0.54;100.00;100360.78;5112070;28;20044;-72
2023/01/28 02:19:37;;;;;;;69.90;42.33;;;;;;;-0.31;100.00;100377.19;5112589;28;20020;-72
2023/01/28 02:22:22;;;;;;;71.80;41.60;;;;;;;-0.29;100.00;100369.53;5112213;28;20044;-72
2023/01/28 02:25:04;;;;;;;76.35;44.60;;;;;;;-0.34;100.00;100346.47;5112466;28;20035;-72
2023/01/28 02:27:56;;;;;;;73.65;39.80;;;;;;;-0.45;100.00;100353.19;5112331;28;20027;-72
2023/01/28 02:30:31;;;;;;;66.05;39.13;;;;;;;-0.47;100.00;100377.03;5112388;28;20351;-72
2023/01/28 02:33:02;;;;;;;72.18;42.47;;;;;;;-0.61;100.00;100353.88;5112391;28;20059;-72
2023/01/28 02:35:34;;;;;;;78.68;46.58;;;;;;;-0.38;100.00;100378.00;5112285;28;20023;-72
2023/01/28 02:38:03;;;;;;;;;;;;;;;-0.45;100.00;100378.75;5112353;28;20031;-72
2023/01/28 02:40:33;;;;;;;77.32;42.15;;;;;;;-0.43;100.00;100383.88;5112364;28;19907;-72
2023/01/28 02:42:58;;;;;;;69.70;40.22;;;;;;;-0.62;100.00;100354.72;5112365;28;20024;-72
2023/01/28 02:47:56;;;;;;;60.50;37.00;;;;;;;-0.64;100.00;100362.34;5112022;28;20380;-74
2023/01/28 02:48:14;;;;;;;65.50;38.97;;;;;;;-0.51;100.00;100379.56;5111797;28;20042;-72
2023/01/28 02:50:51;;;;;;;71.70;39.63;;;;;;;-0.73;100.00;100344.34;5112098;28;20577;-72
2023/01/28 02:53:43;;;;;;;68.93;38.70;;;;;;;-0.46;100.00;100369.38;5111840;28;20382;-72
2023/01/28 02:56:28;;;;;;;66.55;37.90;;;;;;;-0.56;100.00;100355.63;5111924;28;20027;-72
2023/01/28 02:59:38;;;;;;;61.10;37.53;;;;;;;-0.41;100.00;100385.63;5112025;28;20059;-72
2023/01/28 03:02:40;;;;;;;62.92;37.85;;;;;;;-0.37;100.00;100386.53;5048798;28;20033;-72
2023/01/28 03:05:21;;;;;;;62.00;38.50;;;;;;;-0.35;100.00;100387.38;4950733;29;20556;-72
2023/01/28 03:07:48;;;;;;;61.97;38.03;;;;;;;-0.55;100.00;100364.16;4950913;29;20036;-72
2023/01/28 03:10:18;;;;;;;59.72;36.60;;;;;;;-0.44;100.00;100369.38;4950763;29;20114;-72
2023/01/28 03:38:32;;;;;;;68.50;39.38;;;;;;;-0.59;100.00;100388.88;5032574;28;20048;-72
2023/01/28 03:41:02;;;;;;;70.15;41.67;;;;;;;-0.58;100.00;100384.59;5041584;28;20120;-72
2023/01/28 03:43:28;;;;;;;117.75;59.58;;;;;;;-0.42;100.00;100378.81;5115372;28;20030;-72
2023/01/28 03:45:54;;;;;;;82.13;47.10;;;;;;;-0.54;100.00;100388.91;5115116;28;20024;-72
2023/01/28 03:48:22;;;;;;;112.18;60.63;;;;;;;-0.42;100.00;100385.59;5115385;28;20585;-72
2023/01/28 03:50:48;;;;;;;104.55;55.38;;;;;;;-0.57;100.00;100353.06;5115064;28;20118;-72
2023/01/28 03:53:18;;;;;;;100.25;55.53;;;;;;;-0.61;100.00;100362.41;5115043;28;20038;-75
2023/01/28 03:55:45;;;;;;;85.75;47.75;;;;;;;-0.44;100.00;100393.28;5115443;27;20066;-72
2023/01/28 03:58:11;;;;;;;81.88;46.67;;;;;;;-0.59;100.00;100359.84;5114849;28;20386;-72
2023/01/28 04:00:40;;;;;;;69.75;42.55;;;;;;;-0.33;100.00;100389.13;5115274;28;20020;-72
2023/01/28 04:03:14;;;;;;;104.70;57.35;;;;;;;-0.51;100.00;100361.66;5114711;28;20031;-72
2023/01/28 04:05:45;;;;;;;86.50;50.30;;;;;;;-0.43;100.00;100391.56;5115223;28;20028;-72
2023/01/28 04:08:11;;;;;;;117.88;61.78;;;;;;;-0.60;100.00;100376.91;5114732;28;20023;-72
2023/01/28 04:10:40;;;;;;;133.27;70.95;;;;;;;-0.64;100.00;100364.06;5114982;28;20475;-74
2023/01/28 04:13:06;;;;;;;77.88;44.55;;;;;;;-0.54;100.00;100383.78;5114523;28;20124;-72
2023/01/28 04:15:32;;;;;;;88.18;51.08;;;;;;;-0.36;100.00;100378.84;5114627;28;20059;-72
2023/01/28 04:17:57;;;;;;;114.10;61.28;;;;;;;-0.56;100.00;100367.56;5114569;28;20039;-72
2023/01/28 04:20:23;;;;;;;75.15;47.00;;;;;;;-0.24;100.00;100397.72;5114420;28;20093;-72
2023/01/28 04:22:48;;;;;;;76.47;47.53;;;;;;;-0.09;100.00;100387.59;5114326;28;20052;-72
2023/01/28 04:25:14;;;;;;;86.15;53.25;;;;;;;-0.46;100.00;100353.13;5114186;28;20032;-72
2023/01/28 04:27:39;;;;;;;74.72;43.78;;;;;;;-0.16;100.00;100394.41;5114091;28;20074;-72
2023/01/28 04:30:05;;;;;;;80.57;49.38;;;;;;;-0.33;100.00;100378.03;5114385;28;20081;-72
2023/01/28 04:32:30;;;;;;;67.65;43.65;;;;;;;-0.27;100.00;100401.97;5114018;28;20103;-72
2023/01/28 04:34:56;;;;;;;69.15;44.08;;;;;;;-0.33;100.00;100409.59;5114477;28;20032;-72
2023/01/28 04:37:21;;;;;;;72.82;45.92;;;;;;;-0.26;100.00;100382.34;5113889;28;20032;-72
2023/01/28 04:39:46;;;;;;;54.90;35.35;;;;;;;-0.07;100.00;100409.84;5114320;28;20027;-72
2023/01/28 04:42:12;;;;;;;50.92;33.25;;;;;;;-0.14;100.00;100395.25;5114024;28;20024;-73
2023/01/28 04:44:37;;;;;;;59.38;37.75;;;;;;;-0.01;100.00;100416.69;5114091;28;20378;-73
2023/01/28 04:47:02;;;;;;;71.20;46.20;;;;;;;-0.20;100.00;100384.97;5113924;28;20415;-73
2023/01/28 04:49:28;;;;;;;66.85;40.85;;;;;;;-0.16;100.00;100416.59;5113995;28;20028;-74
2023/01/28 04:51:53;;;;;;;76.85;48.20;;;;;;;-0.16;100.00;100414.88;5114179;28;20035;-73
2023/01/28 04:54:18;;;;;;;61.83;39.20;;;;;;;-0.18;100.00;100390.09;5113939;28;20080;-73
2023/01/28 04:56:43;;;;;;;53.58;32.65;;;;;;;-0.15;100.00;100395.25;5113847;28;20088;-73
2023/01/28 04:59:09;;;;;;;57.58;36.13;;;;;;;-0.04;100.00;100421.81;5113826;28;20363;-73
2023/01/28 05:01:34;;;;;;;53.47;35.85;;;;;;;-0.35;100.00;100420.66;5113623;28;20524;-73
2023/01/28 05:04:04;;;;;;;68.28;41.00;;;;;;;-0.32;100.00;100430.94;5113851;28;20046;-73
2023/01/28 05:06:30;;;;;;;62.65;38.53;;;;;;;-0.39;100.00;100430.00;5113445;28;20113;-73
2023/01/28 05:08:55;;;;;;;55.00;36.90;;;;;;;-0.50;100.00;100398.34;5113700;28;20031;-73
2023/01/28 05:11:21;;;;;;;79.28;49.58;;;;;;;-0.30;100.00;100424.97;5113282;28;20035;-73
2023/01/28 05:13:46;;;;;;;64.07;41.05;;;;;;;-0.22;100.00;100437.00;5113611;28;20035;-73
2023/01/28 05:16:11;;;;;;;60.83;35.92;;;;;;;-0.66;100.00;100425.44;5113145;28;20035;-73
2023/01/28 05:18:37;;;;;;;59.10;35.30;;;;;;;-0.65;100.00;100432.28;5113577;28;20246;-73
2023/01/28 05:21:02;;;;;;;61.40;39.63;;;;;;;-0.79;100.00;100428.72;5113556;28;20430;-73
2023/01/28 05:23:27;;;;;;;59.55;38.47;;;;;;;-0.73;100.00;100392.97;5113167;28;20047;-73
2023/01/28 05:25:53;;;;;;;58.38;35.30;;;;;;;-0.42;100.00;100444.44;5113219;28;20028;-73
2023/01/28 05:28:18;;;;;;;63.22;39.38;;;;;;;-0.82;100.00;100403.94;5113005;28;20034;-73
2023/01/28 05:30:43;;;;;;;66.13;42.38;;;;;;;-0.83;100.00;100420.16;5113116;27;20024;-73
2023/01/28 05:33:09;;;;;;;59.20;37.33;;;;;;;-0.65;100.00;100439.94;5113414;28;20103;-74
2023/01/28 05:35:35;;;;;;;66.47;41.42;;;;;;;-0.60;100.00;100440.84;5113342;28;20031;-73
2023/01/28 05:38:01;;;;;;;66.93;42.17;;;;;;;-0.79;100.00;100442.34;5112513;28;20032;-73
2023/01/28 05:40:26;;;;;;;57.47;37.22;;;;;;;-0.79;100.00;100418.47;5113006;28;20038;-73
2023/01/28 05:42:51;;;;;;;55.88;37.72;;;;;;;-0.76;100.00;100429.63;5113044;28;20360;-73
2023/01/28 05:45:17;;;;;;;53.78;33.20;;;;;;;-0.78;100.00;100444.06;5112630;28;20031;-73
2023/01/28 05:47:42;;;;;;;61.92;36.60;;;;;;;-0.93;100.00;100451.53;5112764;28;20110;-74
2023/01/28 05:50:08;;;;;;;59.15;36.65;;;;;;;-1.01;100.00;100417.38;5112962;28;20088;-73
2023/01/28 05:52:34;;;;;;;63.78;40.38;;;;;;;-0.90;100.00;100415.78;5112657;28;20024;-73
2023/01/28 05:55:00;;;;;;;50.72;31.90;;;;;;;-0.74;100.00;100444.13;5112622;28;20493;-73
2023/01/28 05:57:25;;;;;;;65.65;37.83;;;;;;;-0.95;100.00;100386.75;5112401;28;20106;-73
2023/01/28 05:59:51;;;;;;;60.33;35.15;;;;;;;-0.86;100.00;100414.97;5112632;28;20108;-73
2023/01/28 06:02:16;;;;;;;57.45;37.97;;;;;;;-0.80;100.00;100450.88;5112439;28;20076;-73
2023/01/28 06:04:41;;;;;;;62.30;39.00;;;;;;;-0.96;100.00;100425.94;5112576;28;20040;-73
2023/01/28 06:07:07;;;;;;;62.08;39.05;;;;;;;-0.93;100.00;100428.53;5112750;28;20038;-74
2023/01/28 06:09:32;;;;;;;68.18;40.67;;;;;;;-0.93;100.00;100422.56;5112406;28;20089;-73
2023/01/28 06:11:57;;;;;;;59.72;36.25;;;;;;;-0.93;100.00;100427.66;5112565;27;20028;-73
2023/01/28 06:14:22;;;;;;;50.47;32.05;;;;;;;-0.97;100.00;100433.59;5112205;28;20019;-73
2023/01/28 06:16:49;;;;;;;43.08;30.48;;;;;;;-0.72;100.00;100461.19;5112417;28;20027;-73
2023/01/28 06:19:14;;;;;;;53.13;32.25;;;;;;;-0.85;100.00;100457.59;5112435;28;20024;-73
2023/01/28 06:21:39;;;;;;;59.22;36.03;;;;;;;-0.90;100.00;100432.84;5112583;28;20350;-73
2023/01/28 06:24:05;;;;;;;52.35;32.63;;;;;;;-0.89;100.00;100444.78;5112467;28;20051;-73
2023/01/28 06:26:30;;;;;;;53.17;34.15;;;;;;;-0.69;100.00;100458.66;5110670;28;20077;-73
2023/01/28 06:28:55;;;;;;;55.38;34.22;;;;;;;-0.77;100.00;100467.94;5112317;28;20109;-73
2023/01/28 06:31:21;;;;;;;51.90;32.70;;;;;;;-0.66;100.00;100468.09;5112048;28;20076;-73
2023/01/28 06:33:46;;;;;;;54.28;34.97;;;;;;;-0.98;100.00;100457.44;5112438;28;20039;-73
2023/01/28 06:36:12;;;;;;;48.72;32.67;;;;;;;-0.84;100.00;100481.50;5112443;28;20035;-73
2023/01/28 06:38:37;;;;;;;47.28;30.83;;;;;;;-0.95;100.00;100468.56;5112401;28;20071;-73
2023/01/28 06:41:02;;;;;;;49.60;33.15;;;;;;;-0.97;100.00;100464.25;5112297;28;20019;-73
2023/01/28 06:43:29;;;;;;;53.40;34.25;;;;;;;-0.96;100.00;100463.44;5111661;28;20016;-73
2023/01/28 06:45:58;;;;;;;55.25;36.70;;;;;;;-1.01;100.00;100456.56;5111929;28;20046;-73
2023/01/28 06:48:24;;;;;;;61.22;36.42;;;;;;;-0.51;100.00;100493.84;5111805;28;20150;-74
2023/01/28 06:50:50;;;;;;;52.05;32.28;;;;;;;-0.59;100.00;100482.66;5116418;28;20027;-73
2023/01/28 06:53:16;;;;;;;57.22;36.78;;;;;;;-0.81;100.00;100482.38;5116143;28;20034;-73
2023/01/28 06:55:41;;;;;;;58.92;37.10;;;;;;;-0.99;100.00;100469.38;5116233;28;20028;-73
2023/01/28 06:58:06;;;;;;;50.63;33.50;;;;;;;-0.81;100.00;100502.84;5116513;28;20437;-73
2023/01/28 07:00:32;;;;;;;52.33;32.55;;;;;;;-0.73;100.00;100510.63;5115813;28;20489;-73
2023/01/28 07:02:57;;;;;;;50.22;32.08;;;;;;;-0.82;100.00;100500.28;5116117;28;20161;-73
2023/01/28 07:05:23;;;;;;;53.45;34.05;;;;;;;-0.62;100.00;100505.66;5115940;28;20023;-74
2023/01/28 07:07:48;;;;;;;47.42;32.03;;;;;;;-0.83;100.00;100501.13;5115923;28;20020;-73
2023/01/28 07:10:14;;;;;;;54.25;33.30;;;;;;;-0.80;100.00;100516.50;5114683;28;20032;-73
2023/01/28 07:12:39;;;;;;;49.05;31.50;;;;;;;-0.86;100.00;100481.47;5115647;27;20062;-73
2023/01/28 07:15:05;;;;;;;55.90;34.17;;;;;;;-0.87;100.00;100504.47;5115828;28;20116;-73
2023/01/28 07:17:30;;;;;;;59.67;37.65;;;;;;;-0.77;100.00;100507.16;5115844;28;20031;-73
2023/01/28 07:19:56;;;;;;;58.42;36.63;;;;;;;-0.81;100.00;100510.53;5115965;27;20169;-73
2023/01/28 07:22:21;;;;;;;60.08;38.50;;;;;;;-0.74;100.00;100514.03;5115523;28;20070;-73
2023/01/28 07:24:47;;;;;;;54.70;36.17;;;;;;;-0.69;100.00;100491.06;5115748;28;20470;-73
2023/01/28 07:27:12;;;;;;;53.90;34.03;;;;;;;-0.39;100.00;100523.84;5115586;28;20327;-73
2023/01/28 07:29:37;;;;;;;55.28;33.95;;;;;;;-0.27;100.00;100524.84;5115257;28;20061;-73
2023/01/28 07:32:05;;;;;;;96.93;53.63;;;;;;;-0.42;100.00;100516.13;5115938;28;20032;-73
2023/01/28 07:34:31;;;;;;;209.73;90.78;;;;;;;-0.58;100.00;100505.72;5115355;28;20276;-73
2023/01/28 07:36:56;;;;;;;122.78;58.72;;;;;;;-0.75;100.00;100481.63;5115554;28;20027;-73
2023/01/28 07:39:21;;;;;;;135.02;66.85;;;;;;;-0.39;100.00;100521.28;5115132;28;20027;-73
2023/01/28 07:41:47;;;;;;;205.32;100.13;;;;;;;-0.42;100.00;100524.69;5115396;28;20061;-73
2023/01/28 07:44:12;;;;;;;134.82;71.88;;;;;;;-0.62;100.00;100498.84;5115223;28;20425;-73
2023/01/28 07:46:37;;;;;;;77.30;46.05;;;;;;;-0.72;100.00;100512.34;5115022;27;20111;-73
2023/01/28 07:49:03;;;;;;;57.55;34.63;;;;;;;-0.89;100.00;100517.22;5115597;27;20047;-73
2023/01/28 07:51:28;;;;;;;71.35;43.38;;;;;;;-0.93;100.00;100494.16;5115130;28;20054;-73
2023/01/28 07:53:53;;;;;;;56.90;36.50;;;;;;;-0.84;100.00;100496.84;5115085;28;20016;-73
2023/01/28 07:56:19;;;;;;;109.65;63.72;;;;;;;-0.65;100.00;100526.06;5115105;27;20059;-73
2023/01/28 07:58:44;;;;;;;73.93;47.03;;;;;;;-0.85;100.00;100518.13;5114812;28;20022;-73
2023/01/28 08:01:09;;;;;;;58.75;36.05;;;;;;;-0.84;100.00;100495.16;5114333;28;20032;-73
2023/01/28 08:03:35;;;;;;;84.75;50.30;;;;;;;-0.54;100.00;100517.72;5114815;28;20020;-73
2023/01/28 08:06:00;;;;;;;102.93;62.95;;;;;;;-0.42;100.00;100500.75;5114861;28;20050;-73
2023/01/28 08:08:28;;;;;;;81.43;48.72;;;;;;;-0.15;100.00;100528.38;5114533;28;20035;-73
2023/01/28 08:10:54;;;;;;;75.65;45.58;;;;;;;-0.23;100.00;100530.84;5115223;28;20028;-73
2023/01/28 08:13:19;;;;;;;66.63;43.97;;;;;;;-0.56;100.00;100504.03;5114652;28;20466;-73
2023/01/28 08:15:45;;;;;;;62.53;40.30;;;;;;;-0.60;100.00;100503.97;5114642;28;20023;-73
2023/01/28 08:18:14;;;;;;;72.00;44.97;;;;;;;-0.74;100.00;100531.09;5114777;28;20035;-72
2023/01/28 08:20:41;;;;;;;101.40;63.65;;;;;;;-0.56;100.00;100544.97;5114395;28;20027;-73
2023/01/28 08:23:14;;;;;;;76.90;52.58;;;;;;;-0.54;100.00;100548.41;5114730;28;20051;-73
2023/01/28 08:25:40;;;;;;;77.97;48.03;;;;;;;-0.48;100.00;100522.03;5114297;28;20054;-73
2023/01/28 08:28:06;;;;;;;82.95;47.22;;;;;;;-0.36;100.00;100546.91;5114423;28;20020;-73
2023/01/28 08:30:32;;;;;;;54.38;35.85;;;;;;;-0.34;100.00;100545.22;5114267;28;20032;-73
2023/01/28 08:32:59;;;;;;;61.85;38.65;;;;;;;-0.83;100.00;100535.22;5114477;28;20035;-73
2023/01/28 08:35:25;;;;;;;62.25;40.75;;;;;;;-0.59;100.00;100526.16;5114133;28;20039;-73
2023/01/28 08:37:52;;;;;;;66.72;42.25;;;;;;;-0.31;100.00;100547.81;5114268;28;20424;-73
2023/01/28 08:40:17;;;;;;;69.78;46.03;;;;;;;-0.36;100.00;100555.44;5114133;28;20487;-73
2023/01/28 08:42:51;;;;;;;58.78;39.08;;;;;;;-0.65;100.00;100549.09;5114118;28;20062;-73
2023/01/28 08:45:17;;;;;;;56.78;37.92;;;;;;;-0.74;100.00;100524.25;5114051;28;20028;-73
2023/01/28 08:47:56;;;;;;;58.35;38.03;;;;;;;-0.61;100.00;100561.09;5113833;28;20058;-73
2023/01/28 08:50:24;;;;;;;57.40;37.08;;;;;;;-0.71;100.00;100543.91;5114028;28;20030;-73
2023/01/28 08:53:01;;;;;;;59.47;40.70;;;;;;;-0.54;100.00;100527.94;5113897;28;20027;-73
2023/01/28 08:55:27;;;;;;;60.20;38.88;;;;;;;-0.60;100.00;100561.09;5113897;28;20035;-73
2023/01/28 08:57:53;;;;;;;57.70;38.28;;;;;;;-0.65;100.00;100544.00;5113765;28;20085;-73
2023/01/28 09:00:19;;;;;;;58.33;38.50;;;;;;;-0.70;100.00;100505.56;5113694;28;20110;-73
2023/01/28 09:02:45;;;;;;;48.90;34.17;;;;;;;-0.47;100.00;100551.03;5113745;28;20035;-73
2023/01/28 09:05:10;;;;;;;56.80;34.88;;;;;;;-0.65;100.00;100549.09;5113789;28;20027;-73
2023/01/28 09:07:37;;;;;;;49.03;32.95;;;;;;;-0.63;100.00;100566.22;5113342;28;20024;-73
2023/01/28 09:10:03;;;;;;;48.28;33.75;;;;;;;-0.92;100.00;100545.34;5113770;28;20032;-73
2023/01/28 09:12:29;;;;;;;172.48;79.78;;;;;;;-0.95;100.00;100557.22;5112280;28;20024;-73
2023/01/28 09:14:54;;;;;;;76.93;44.42;;;;;;;-0.72;100.00;100567.75;5113909;28;20096;-73
2023/01/28 09:17:20;;;;;;;210.10;89.50;;;;;;;-0.78;100.00;100578.78;5112133;28;20039;-73
2023/01/28 09:19:46;;;;;;;114.45;56.15;;;;;;;-0.78;100.00;100563.44;5113248;28;20039;-73
2023/01/28 09:22:11;;;;;;;317.55;141.07;;;;;;;-0.81;100.00;100571.91;5113006;28;20055;-73
2023/01/28 09:24:36;;;;;;;313.35;153.77;;;;;;;-0.71;100.00;100583.16;5113354;28;20517;-73
2023/01/28 09:27:02;;;;;;;76.70;46.53;;;;;;;-0.77;100.00;100549.78;5113299;28;20494;-73
2023/01/28 09:29:27;;;;;;;182.35;82.28;;;;;;;-0.65;100.00;100585.78;5112920;28;20029;-73
2023/01/28 09:31:52;;;;;;;86.72;45.78;;;;;;;-0.84;100.00;100556.53;5113186;28;20153;-73
2023/01/28 09:34:18;;;;;;;123.25;52.63;;;;;;;-1.01;100.00;100561.41;5113116;28;20490;-73
2023/01/28 09:36:43;;;;;;;81.45;40.33;;;;;;;-0.90;100.00;100547.91;5112806;27;20035;-73
2023/01/28 09:39:09;;;;;;;72.63;40.47;;;;;;;-0.83;100.00;100562.50;5113261;28;20459;-73
2023/01/28 09:41:48;;;;;;;84.97;43.63;;;;;;;-1.00;100.00;100562.25;5112868;28;20027;-73
2023/01/28 09:44:22;;;;;;;65.07;38.45;;;;;;;-0.78;100.00;100597.53;5112932;28;20059;-73
2023/01/28 09:46:48;;;;;;;49.45;32.88;;;;;;;-0.89;100.00;100562.41;5112654;28;20024;-73
2023/01/28 09:49:23;;;;;;;59.22;33.92;;;;;;;-0.76;100.00;100589.88;5112798;28;20051;-73
2023/01/28 09:51:52;;;;;;;72.22;37.88;;;;;;;-0.68;100.00;100585.72;5112783;28;20062;-73
2023/01/28 09:54:43;;;;;;;124.03;48.83;;;;;;;-0.57;100.00;100608.91;5112900;28;20031;-73
2023/01/28 09:57:56;;;;;;;132.73;50.20;;;;;;;-0.88;100.00;100590.59;5112846;28;20035;-73
2023/01/28 10:00:25;;;;;;;57.45;32.25;;;;;;;-0.86;100.00;100568.44;5049604;28;20099;-73
2023/01/28 10:03:15;;;;;;;242.20;98.15;;;;;;;-0.71;100.00;100593.38;5049809;28;20033;-73
2023/01/28 10:05:55;;;;;;;148.55;60.95;;;;;;;-0.82;100.00;100575.31;5049581;28;20458;-73
2023/01/28 10:08:45;;;;;;;133.40;50.55;;;;;;;-0.69;100.00;100593.38;5049513;28;20040;-73
2023/01/28 10:11:41;;;;;;;83.70;39.03;;;;;;;-0.82;100.00;100592.34;5049577;28;20090;-73
2023/01/28 10:14:37;;;;;;;72.07;35.15;;;;;;;-0.74;100.00;100583.09;5049847;28;20028;-73
2023/01/28 10:17:14;;;;;;;66.50;32.05;;;;;;;-0.85;100.00;100592.31;5049491;28;20040;-73
2023/01/28 10:19:44;;;;;;;86.88;38.90;;;;;;;-0.89;100.00;100564.97;5049166;28;20037;-73
2023/01/28 10:22:20;;;;;;;62.55;30.77;;;;;;;-0.62;100.00;100577.28;5049056;28;20057;-73
2023/01/28 10:24:51;;;;;;;71.75;32.33;;;;;;;-0.69;100.00;100585.72;5048733;28;20097;-73
2023/01/28 10:27:22;;;;;;;103.38;41.30;;;;;;;-0.79;100.00;100577.91;5049360;28;20045;-73
2023/01/28 10:29:49;;;;;;;63.65;38.67;;;;;;;-0.80;100.00;100557.41;5049121;28;20037;-73
2023/01/28 10:32:41;;;;;;;62.63;29.40;;;;;;;-0.98;100.00;100578.47;5049339;28;20071;-73
2023/01/28 10:35:06;;;;;;;375.77;142.13;;;;;;;-0.91;100.00;100593.09;5049180;28;20029;-73
2023/01/28 10:37:39;;;;;;;538.33;188.88;;;;;;;-0.84;100.00;100589.78;5108127;28;20039;-73
2023/01/28 10:40:11;;;;;;;206.50;65.18;;;;;;;-0.73;100.00;100595.03;5112427;28;20031;-73
2023/01/28 10:42:37;;;;;;;122.15;47.05;;;;;;;-0.89;100.00;100581.16;5112102;28;20114;-73
2023/01/28 10:45:09;;;;;;;98.93;45.45;;;;;;;-0.66;100.00;100598.56;5112178;28;20463;-73
2023/01/28 10:47:42;;;;;;;77.55;36.22;;;;;;;-0.62;100.00;100601.19;5111795;28;20019;-73
2023/01/28 10:50:16;;;;;;;95.05;42.10;;;;;;;-0.32;100.00;100602.44;5112281;28;20087;-73
2023/01/28 10:52:59;;;;;;;64.93;34.80;;;;;;;-0.38;100.00;100595.53;5111968;28;20028;-73
2023/01/28 10:55:49;;;;;;;68.65;34.45;;;;;;;-0.58;99.84;100569.69;5112091;28;20528;-73
2023/01/28 10:58:23;;;;;;;83.40;39.00;;;;;;;-0.50;99.62;100590.25;5112228;28;20023;-73
2023/01/28 11:01:05;;;;;;;65.72;31.05;;;;;;;-0.37;98.63;100561.41;5111859;28;20077;-73
2023/01/28 11:03:30;;;;;;;90.47;40.28;;;;;;;-0.19;98.69;100577.84;5111736;28;20475;-73
2023/01/28 11:05:57;;;;;;;64.53;33.55;;;;;;;-0.30;97.91;100596.47;5111642;28;20023;-73
2023/01/28 11:08:25;;;;;;;129.98;62.03;;;;;;;-0.15;97.75;100595.81;5111810;28;20139;-73
2023/01/28 11:10:52;;;;;;;110.95;54.35;;;;;;;-0.03;97.72;100584.84;5111811;28;20023;-73
2023/01/28 11:13:21;;;;;;;70.13;31.95;;;;;;;-0.02;96.58;100596.81;5112091;28;20517;-73
2023/01/28 11:16:02;;;;;;;56.95;26.25;;;;;;;-0.14;96.17;100592.41;5111703;28;20035;-73
2023/01/28 11:18:31;;;;;;;88.57;39.75;;;;;;;-0.34;95.66;100594.75;5112046;28;20042;-73
2023/01/28 11:21:00;;;;;;;242.18;102.05;;;;;;;-0.27;96.41;100570.06;5111617;28;20072;-73
2023/01/28 11:23:29;;;;;;;115.60;56.53;;;;;;;-0.37;96.62;100563.13;5111717;28;20040;-73
2023/01/28 11:26:18;;;;;;;278.80;129.32;;;;;;;-0.26;96.30;100599.94;5111896;28;20479;-73
2023/01/28 11:28:44;;;;;;;164.70;57.03;;;;;;;-0.29;97.18;100597.34;5111574;28;20028;-73
2023/01/28 11:31:13;;;;;;;141.55;40.38;;;;;;;-0.62;96.93;100596.06;5111624;28;20379;-73
2023/01/28 11:33:48;;;;;;;79.38;29.55;;;;;;;-0.57;97.16;100588.44;5111751;28;20034;-73
2023/01/28 11:36:16;;;;;;;75.15;32.28;;;;;;;-0.41;97.69;100599.75;5113134;28;20031;-73